Pagina principale
METAR-TAF:

METAR-TAF

Aeroporti :

Flotila 71 Aeriană

Câmpia Turzii, Romania

latitudine: 46-30-12N, longitudine: 023-53-07E, altezza: 324 m

Osservazione

Il bollettino è stato emesso 1 ora e 2 minuti fa, alle 13:00 UTC
Vento 6 kt da nord-est
Temperature 26°C
Umidità 48%
Pressione 1016 hPa
Visibilità 10 km o più
Poco nuvoloso ad un'altezza di 4000 ft
Nuvoloso ad un'altezza di 7000 ft

METAR: LRCT 171300Z 05006KT 9999 FEW040 BKN070 26/14 Q1016 BLU BLU

Ora: 17:02 (14:02 UTC)


TAF: mancante

Osservazioni e previsioni meteorologiche di più di 4000 aeroporti (messaggi METAR e TAF).

Le stazioni disponibili sono rappresentate dai dischi gialli e rossi sulla carta.

Puntare il mouse per vedere il nome della stazione.

Clicca sopra per visualizzare le osservazioni e previsioni meteorologiche.

Per cambiare la mappa : fare clic sui pulsanti verdi con una croce nera per ingrandire, il pulsante verde con un trattino per diminuire, o sulla freccia verde per le mappe adiacenti.


METAR-TAF: